This is the latest recevied weather packets stored in our database for station/object K6CED. If no packets are shown the sender has not sent any weather packets the latest 10 day(s).
| Time | Temp. | Humidity | Pressure | Rain* | Wind** | Luminosity | Snow |
|---|---|---|---|---|---|---|---|
| 1788648269 | 32.78° C | 34% | 1015.3 hPa | 0 mm | - | 255 W/m² | - |
| 1788647963 | 32.78° C | 35% | 1015.1 hPa | 0 mm | - | 242 W/m² | - |
| 1788647660 | 32.78° C | 35% | 1015.1 hPa | 0 mm | - | 362 W/m² | - |
| 1788647355 | 32.78° C | 35% | 1015.4 hPa | 0 mm | - | 463 W/m² | - |
| 1788647055 | 32.78° C | 34% | 1015.2 hPa | 0 mm | - | 296 W/m² | - |
| 1788646750 | 32.78° C | 35% | 1015.1 hPa | 0 mm | - | 314 W/m² | - |
| 1788646447 | 32.78° C | 34% | 1015.2 hPa | 0 mm | - | 288 W/m² | - |
| 1788646142 | 32.78° C | 35% | 1015.3 hPa | 0 mm | - | 273 W/m² | - |
| 1788645838 | 32.78° C | 35% | 1015.4 hPa | 0 mm | - | 434 W/m² | - |
| 1788645537 | 32.22° C | 33% | 1015.5 hPa | 0 mm | - | 450 W/m² | - |
| 1788645233 | 32.78° C | 34% | 1015.7 hPa | 0 mm | - | 298 W/m² | - |
| 1788644945 | 32.78° C | 33% | 1015.6 hPa | 0 mm | - | 260 W/m² | - |
| 1788644619 | 33.33° C | 33% | 1015.8 hPa | 0 mm | - | 291 W/m² | - |
| 1788644313 | 32.78° C | 30% | 1015.5 hPa | 0 mm | - | 769 W/m² | - |
| 1788644010 | 33.33° C | 30% | 1015.7 hPa | 0 mm | - | 803 W/m² | - |
| 1788643704 | 32.78° C | 29% | 1015.8 hPa | 0 mm | - | 791 W/m² | - |
| 1788643398 | 33.89° C | 32% | 1015.9 hPa | 0 mm | - | 366 W/m² | - |
| 1788643093 | 33.33° C | 31% | 1015.9 hPa | 0 mm | - | 791 W/m² | - |
| 1788642788 | 32.78° C | 32% | 1016.1 hPa | 0 mm | - | 926 W/m² | - |
| 1788642485 | 32.78° C | 29% | 1016 hPa | 0 mm | - | 1021 W/m² | - |
| 1788642184 | 33.33° C | 31% | 1015.9 hPa | 0 mm | - | 705 W/m² | - |
| 1788641883 | 33.33° C | 26% | 1016 hPa | 0 mm | - | 365 W/m² | - |
| 1788641578 | 33.33° C | 27% | 1016 hPa | 0 mm | - | 284 W/m² | - |
| 1788641277 | 33.89° C | 23% | 1016 hPa | 0 mm | - | 987 W/m² | - |
| 1788640974 | 33.33° C | 26% | 1016.1 hPa | 0 mm | - | 330 W/m² | - |
* Rain latest hour (hover to see other rain measurements)
** Current wind speed in m/s (hover to see current wind gust speed)